sensor_id;sensor_type;location;lat;lon;timestamp;pressure;altitude;pressure_sealevel;temperature;humidity
85159;BME280;75525;50.718;10.600;2024-03-17T00:00:54;96596.50;;;0.68;88.18
85159;BME280;75525;50.718;10.600;2024-03-17T00:01:54;96602.47;;;0.70;88.69
85159;BME280;75525;50.718;10.600;2024-03-17T00:02:55;96603.94;;;0.72;88.37
85159;BME280;75525;50.718;10.600;2024-03-17T00:03:55;96598.81;;;0.71;87.97
85159;BME280;75525;50.718;10.600;2024-03-17T00:04:56;96583.38;;;0.66;87.88
85159;BME280;75525;50.718;10.600;2024-03-17T00:05:58;96598.81;;;0.71;87.80
85159;BME280;75525;50.718;10.600;2024-03-17T00:06:58;96593.75;;;0.76;87.72
85159;BME280;75525;50.718;10.600;2024-03-17T00:07:59;96599.91;;;0.77;87.75
85159;BME280;75525;50.718;10.600;2024-03-17T00:08:59;96574.72;;;0.64;88.09
85159;BME280;75525;50.718;10.600;2024-03-17T00:10:06;96585.59;;;0.78;87.91
85159;BME280;75525;50.718;10.600;2024-03-17T00:11:10;96586.22;;;0.80;88.13
85159;BME280;75525;50.718;10.600;2024-03-17T00:12:11;96598.16;;;0.84;87.84
85159;BME280;75525;50.718;10.600;2024-03-17T00:13:12;96587.22;;;0.79;87.84
85159;BME280;75525;50.718;10.600;2024-03-17T00:14:12;96598.84;;;0.86;87.66
85159;BME280;75525;50.718;10.600;2024-03-17T00:15:13;96588.16;;;0.86;87.55
85159;BME280;75525;50.718;10.600;2024-03-17T00:16:14;96594.31;;;0.86;87.66
85159;BME280;75525;50.718;10.600;2024-03-17T00:17:18;96592.47;;;0.87;87.64
85159;BME280;75525;50.718;10.600;2024-03-17T00:18:21;96590.44;;;0.89;87.44
85159;BME280;75525;50.718;10.600;2024-03-17T00:19:23;96581.63;;;0.88;87.14
85159;BME280;75525;50.718;10.600;2024-03-17T00:20:26;96594.78;;;0.90;86.96
85159;BME280;75525;50.718;10.600;2024-03-17T00:21:28;96569.75;;;0.76;86.54
85159;BME280;75525;50.718;10.600;2024-03-17T00:22:29;96596.44;;;0.91;86.80
85159;BME280;75525;50.718;10.600;2024-03-17T00:23:29;96596.44;;;0.91;86.82
85159;BME280;75525;50.718;10.600;2024-03-17T00:24:30;96595.25;;;0.93;87.34
85159;BME280;75525;50.718;10.600;2024-03-17T00:25:35;96593.41;;;0.94;87.80
85159;BME280;75525;50.718;10.600;2024-03-17T00:26:36;96601.22;;;0.95;88.01
85159;BME280;75525;50.718;10.600;2024-03-17T00:27:36;96594.41;;;0.93;87.71
85159;BME280;75525;50.718;10.600;2024-03-17T00:28:39;96591.38;;;0.96;87.54
85159;BME280;75525;50.718;10.600;2024-03-17T00:29:40;96599.22;;;0.97;87.77
85159;BME280;75525;50.718;10.600;2024-03-17T00:30:40;96598.00;;;1.00;87.37
85159;BME280;75525;50.718;10.600;2024-03-17T00:31:41;96596.16;;;1.01;87.63
85159;BME280;75525;50.718;10.600;2024-03-17T00:32:42;96580.44;;;0.91;87.60
85159;BME280;75525;50.718;10.600;2024-03-17T00:33:42;96600.66;;;1.00;88.01
85159;BME280;75525;50.718;10.600;2024-03-17T00:34:44;96591.72;;;0.93;87.97
85159;BME280;75525;50.718;10.600;2024-03-17T00:35:44;96608.50;;;1.02;87.74
85159;BME280;75525;50.718;10.600;2024-03-17T00:36:45;96598.47;;;1.04;87.49
85159;BME280;75525;50.718;10.600;2024-03-17T00:37:49;96600.94;;;1.05;87.72
85159;BME280;75525;50.718;10.600;2024-03-17T00:38:49;96597.28;;;1.06;87.29
85159;BME280;75525;50.718;10.600;2024-03-17T00:39:52;96603.59;;;1.05;87.43
85159;BME280;75525;50.718;10.600;2024-03-17T00:40:52;96605.28;;;1.06;88.14
85159;BME280;75525;50.718;10.600;2024-03-17T00:41:53;96600.94;;;1.05;88.14
85159;BME280;75525;50.718;10.600;2024-03-17T00:42:53;96608.28;;;1.03;87.97
85159;BME280;75525;50.718;10.600;2024-03-17T00:43:54;96609.31;;;1.02;87.37
85159;BME280;75525;50.718;10.600;2024-03-17T00:44:55;96604.81;;;1.03;87.23
85159;BME280;75525;50.718;10.600;2024-03-17T00:45:56;96597.06;;;0.93;87.52
85159;BME280;75525;50.718;10.600;2024-03-17T00:46:56;96599.00;;;0.99;87.96
85159;BME280;75525;50.718;10.600;2024-03-17T00:47:56;96591.38;;;0.96;87.82
85159;BME280;75525;50.718;10.600;2024-03-17T00:48:58;96598.00;;;1.00;87.64
85159;BME280;75525;50.718;10.600;2024-03-17T00:50:00;96600.66;;;1.00;87.37
85159;BME280;75525;50.718;10.600;2024-03-17T00:51:00;96590.75;;;0.94;87.20
85159;BME280;75525;50.718;10.600;2024-03-17T00:52:01;96598.66;;;1.02;87.49
85159;BME280;75525;50.718;10.600;2024-03-17T00:53:01;96597.81;;;1.02;87.39
85159;BME280;75525;50.718;10.600;2024-03-17T00:54:03;96591.63;;;1.01;87.49
85159;BME280;75525;50.718;10.600;2024-03-17T00:55:04;96584.41;;;0.95;87.44
85159;BME280;75525;50.718;10.600;2024-03-17T00:56:04;96592.50;;;1.02;87.95
85159;BME280;75525;50.718;10.600;2024-03-17T00:57:05;96591.84;;;0.99;88.15
85159;BME280;75525;50.718;10.600;2024-03-17T00:58:05;96592.66;;;1.00;87.83
85159;BME280;75525;50.718;10.600;2024-03-17T00:59:06;96587.31;;;1.00;87.75
85159;BME280;75525;50.718;10.600;2024-03-17T01:00:07;96596.16;;;1.01;87.73
85159;BME280;75525;50.718;10.600;2024-03-17T01:01:10;96588.81;;;1.03;87.54
85159;BME280;75525;50.718;10.600;2024-03-17T01:02:11;96584.66;;;1.00;87.74
85159;BME280;75525;50.718;10.600;2024-03-17T01:03:15;96591.28;;;1.04;87.74
85159;BME280;75525;50.718;10.600;2024-03-17T01:04:16;96587.59;;;1.05;87.89
85159;BME280;75525;50.718;10.600;2024-03-17T01:05:16;96590.25;;;1.05;87.72
85159;BME280;75525;50.718;10.600;2024-03-17T01:06:17;96586.78;;;1.05;87.76
85159;BME280;75525;50.718;10.600;2024-03-17T01:07:18;96583.94;;;1.06;87.96
85159;BME280;75525;50.718;10.600;2024-03-17T01:08:19;96572.00;;;1.02;88.06
85159;BME280;75525;50.718;10.600;2024-03-17T01:09:19;96581.91;;;1.08;87.44
85159;BME280;75525;50.718;10.600;2024-03-17T01:10:20;96590.16;;;1.13;87.79
85159;BME280;75525;50.718;10.600;2024-03-17T01:11:20;96588.53;;;1.12;87.23
85159;BME280;75525;50.718;10.600;2024-03-17T01:12:20;96582.16;;;1.13;87.11
85159;BME280;75525;50.718;10.600;2024-03-17T01:13:21;96582.16;;;1.13;87.12
85159;BME280;75525;50.718;10.600;2024-03-17T01:14:21;96586.50;;;1.14;87.03
85159;BME280;75525;50.718;10.600;2024-03-17T01:15:22;96584.47;;;1.16;87.09
85159;BME280;75525;50.718;10.600;2024-03-17T01:16:24;96585.28;;;1.17;87.50
85159;BME280;75525;50.718;10.600;2024-03-17T01:17:24;96588.78;;;1.17;87.14
85159;BME280;75525;50.718;10.600;2024-03-17T01:18:24;96567.94;;;1.06;87.47
85159;BME280;75525;50.718;10.600;2024-03-17T01:19:25;96589.81;;;1.16;86.91
85159;BME280;75525;50.718;10.600;2024-03-17T01:20:26;96586.13;;;1.17;87.25
85159;BME280;75525;50.718;10.600;2024-03-17T01:21:27;96586.13;;;1.17;87.76
85159;BME280;75525;50.718;10.600;2024-03-17T01:22:27;96591.28;;;1.19;87.82
85159;BME280;75525;50.718;10.600;2024-03-17T01:23:28;96584.09;;;1.19;87.73
85159;BME280;75525;50.718;10.600;2024-03-17T01:24:29;96585.28;;;1.17;87.92
85159;BME280;75525;50.718;10.600;2024-03-17T01:25:34;96570.88;;;1.11;87.55
85159;BME280;75525;50.718;10.600;2024-03-17T01:26:37;96575.84;;;1.14;87.83
85159;BME280;75525;50.718;10.600;2024-03-17T01:27:37;96581.19;;;1.14;87.27
85159;BME280;75525;50.718;10.600;2024-03-17T01:28:38;96559.94;;;1.06;87.46
85159;BME280;75525;50.718;10.600;2024-03-17T01:29:39;96567.03;;;1.14;87.96
85159;BME280;75525;50.718;10.600;2024-03-17T01:30:39;96557.28;;;1.06;87.86
85159;BME280;75525;50.718;10.600;2024-03-17T01:31:40;96566.81;;;1.15;87.85
85159;BME280;75525;50.718;10.600;2024-03-17T01:32:40;96574.16;;;1.13;87.90
85159;BME280;75525;50.718;10.600;2024-03-17T01:33:40;96571.69;;;1.12;88.19
85159;BME280;75525;50.718;10.600;2024-03-17T01:34:41;96574.56;;;1.10;88.35
85159;BME280;75525;50.718;10.600;2024-03-17T01:35:41;96563.91;;;1.10;88.67
85159;BME280;75525;50.718;10.600;2024-03-17T01:36:42;96573.91;;;1.08;88.11
85159;BME280;75525;50.718;10.600;2024-03-17T01:37:42;96565.91;;;1.08;88.03
85159;BME280;75525;50.718;10.600;2024-03-17T01:38:43;96552.88;;;0.98;88.38
85159;BME280;75525;50.718;10.600;2024-03-17T01:39:43;96565.28;;;1.06;88.29
85159;BME280;75525;50.718;10.600;2024-03-17T01:40:44;96564.63;;;1.04;88.07
85159;BME280;75525;50.718;10.600;2024-03-17T01:41:44;96555.69;;;0.97;87.90
85159;BME280;75525;50.718;10.600;2024-03-17T01:42:44;96558.66;;;1.02;88.06
85159;BME280;75525;50.718;10.600;2024-03-17T01:43:45;96563.34;;;1.00;87.95
85159;BME280;75525;50.718;10.600;2024-03-17T01:44:45;96551.47;;;0.88;88.26
85159;BME280;75525;50.718;10.600;2024-03-17T01:45:46;96558.56;;;0.95;88.29
85159;BME280;75525;50.718;10.600;2024-03-17T01:46:47;96563.25;;;0.93;88.28
85159;BME280;75525;50.718;10.600;2024-03-17T01:47:47;96566.91;;;0.92;88.93
85159;BME280;75525;50.718;10.600;2024-03-17T01:48:48;96556.34;;;0.84;88.35
85159;BME280;75525;50.718;10.600;2024-03-17T01:49:49;96558.66;;;0.87;88.77
85159;BME280;75525;50.718;10.600;2024-03-17T01:50:52;96567.22;;;0.83;88.70
85159;BME280;75525;50.718;10.600;2024-03-17T01:51:53;96568.03;;;0.83;88.80
85159;BME280;75525;50.718;10.600;2024-03-17T01:52:56;96555.44;;;0.77;88.88
85159;BME280;75525;50.718;10.600;2024-03-17T01:53:59;96558.94;;;0.78;88.84
85159;BME280;75525;50.718;10.600;2024-03-17T01:55:01;96559.31;;;0.74;88.94
85159;BME280;75525;50.718;10.600;2024-03-17T01:56:03;96549.56;;;0.67;88.87
85159;BME280;75525;50.718;10.600;2024-03-17T01:57:04;96558.38;;;0.67;89.28
85159;BME280;75525;50.718;10.600;2024-03-17T01:58:05;96565.72;;;0.65;88.98
85159;BME280;75525;50.718;10.600;2024-03-17T01:59:12;96558.25;;;0.61;88.69
85159;BME280;75525;50.718;10.600;2024-03-17T02:00:14;96554.59;;;0.62;89.27
85159;BME280;75525;50.718;10.600;2024-03-17T02:01:15;96560.75;;;0.62;89.43
85159;BME280;75525;50.718;10.600;2024-03-17T02:02:16;96552.09;;;0.60;89.18
85159;BME280;75525;50.718;10.600;2024-03-17T02:03:16;96556.34;;;0.55;89.32
85159;BME280;75525;50.718;10.600;2024-03-17T02:04:17;96558.81;;;0.56;89.37
85159;BME280;75525;50.718;10.600;2024-03-17T02:05:18;96555.50;;;0.54;89.36
85159;BME280;75525;50.718;10.600;2024-03-17T02:06:18;96549.06;;;0.48;89.36
85159;BME280;75525;50.718;10.600;2024-03-17T02:07:19;96555.88;;;0.51;89.14
85159;BME280;75525;50.718;10.600;2024-03-17T02:08:19;96553.56;;;0.48;89.53
85159;BME280;75525;50.718;10.600;2024-03-17T02:09:22;96553.56;;;0.48;89.61
85159;BME280;75525;50.718;10.600;2024-03-17T02:10:22;96552.75;;;0.47;89.66
85159;BME280;75525;50.718;10.600;2024-03-17T02:11:30;96550.44;;;0.44;90.40
85159;BME280;75525;50.718;10.600;2024-03-17T02:12:31;96554.38;;;0.48;89.84
85159;BME280;75525;50.718;10.600;2024-03-17T02:13:32;96564.22;;;0.48;89.75
85159;BME280;75525;50.718;10.600;2024-03-17T02:14:33;96564.88;;;0.50;89.39
85159;BME280;75525;50.718;10.600;2024-03-17T02:15:34;96546.78;;;0.45;89.57
85159;BME280;75525;50.718;10.600;2024-03-17T02:16:34;96558.25;;;0.46;90.06
85159;BME280;75525;50.718;10.600;2024-03-17T02:17:35;96551.91;;;0.47;89.82
85159;BME280;75525;50.718;10.600;2024-03-17T02:18:35;96559.91;;;0.47;89.75
85159;BME280;75525;50.718;10.600;2024-03-17T02:19:35;96551.44;;;0.43;89.67
85159;BME280;75525;50.718;10.600;2024-03-17T02:20:36;96551.44;;;0.43;89.67
85159;BME280;75525;50.718;10.600;2024-03-17T02:21:55;96540.59;;;0.30;89.91
85159;BME280;75525;50.718;10.600;2024-03-17T02:22:55;96544.00;;;0.39;90.61
85159;BME280;75525;50.718;10.600;2024-03-17T02:23:56;96541.06;;;0.34;90.12
85159;BME280;75525;50.718;10.600;2024-03-17T02:24:57;96543.38;;;0.37;90.36
85159;BME280;75525;50.718;10.600;2024-03-17T02:25:57;96539.84;;;0.36;90.36
85159;BME280;75525;50.718;10.600;2024-03-17T02:26:58;96535.06;;;0.32;90.20
85159;BME280;75525;50.718;10.600;2024-03-17T02:27:58;96539.03;;;0.36;90.17
85159;BME280;75525;50.718;10.600;2024-03-17T02:28:59;96542.72;;;0.35;89.92
85159;BME280;75525;50.718;10.600;2024-03-17T02:29:59;96522.38;;;0.19;90.35
85159;BME280;75525;50.718;10.600;2024-03-17T02:31:00;96526.53;;;0.21;90.36
85159;BME280;75525;50.718;10.600;2024-03-17T02:32:00;96548.78;;;0.29;90.29
85159;BME280;75525;50.718;10.600;2024-03-17T02:33:06;96541.97;;;0.26;90.46
85159;BME280;75525;50.718;10.600;2024-03-17T02:34:06;96519.91;;;0.17;90.76
85159;BME280;75525;50.718;10.600;2024-03-17T02:35:07;96533.16;;;0.26;90.43
85159;BME280;75525;50.718;10.600;2024-03-17T02:36:08;96535.97;;;0.24;90.41
85159;BME280;75525;50.718;10.600;2024-03-17T02:37:09;96539.50;;;0.24;90.07
85159;BME280;75525;50.718;10.600;2024-03-17T02:38:10;96543.13;;;0.23;90.34
85159;BME280;75525;50.718;10.600;2024-03-17T02:39:15;96531.84;;;0.21;90.50
85159;BME280;75525;50.718;10.600;2024-03-17T02:40:34;96539.84;;;0.21;90.53
85159;BME280;75525;50.718;10.600;2024-03-17T02:41:34;96538.00;;;0.22;90.12
85159;BME280;75525;50.718;10.600;2024-03-17T02:42:36;96536.16;;;0.22;90.39
85159;BME280;75525;50.718;10.600;2024-03-17T02:43:38;96534.53;;;0.21;90.03
85159;BME280;75525;50.718;10.600;2024-03-17T02:44:38;96521.28;;;0.13;90.51
85159;BME280;75525;50.718;10.600;2024-03-17T02:45:43;96531.84;;;0.21;90.26
85159;BME280;75525;50.718;10.600;2024-03-17T02:46:43;96530.22;;;0.20;90.34
85159;BME280;75525;50.718;10.600;2024-03-17T02:47:44;96530.22;;;0.20;90.28
85159;BME280;75525;50.718;10.600;2024-03-17T02:48:47;96526.06;;;0.18;90.31
85159;BME280;75525;50.718;10.600;2024-03-17T02:49:48;96523.75;;;0.15;90.29
85159;BME280;75525;50.718;10.600;2024-03-17T02:50:50;96524.09;;;0.12;90.20
85159;BME280;75525;50.718;10.600;2024-03-17T02:51:51;96527.16;;;0.09;90.30
85159;BME280;75525;50.718;10.600;2024-03-17T02:52:51;96525.66;;;0.06;90.35
85159;BME280;75525;50.718;10.600;2024-03-17T02:53:51;96521.34;;;0.05;90.51
85159;BME280;75525;50.718;10.600;2024-03-17T02:54:52;96525.84;;;0.05;90.71
85159;BME280;75525;50.718;10.600;2024-03-17T02:55:55;96525.38;;;0.01;90.51
85159;BME280;75525;50.718;10.600;2024-03-17T02:56:56;96521.78;;;-0.06;90.68
85159;BME280;75525;50.718;10.600;2024-03-17T02:57:56;96519.94;;;-0.06;90.45
85159;BME280;75525;50.718;10.600;2024-03-17T02:58:57;96518.16;;;-0.13;90.62
85159;BME280;75525;50.718;10.600;2024-03-17T02:59:58;96514.88;;;-0.15;90.62
85159;BME280;75525;50.718;10.600;2024-03-17T03:00:59;96524.84;;;-0.17;90.84
85159;BME280;75525;50.718;10.600;2024-03-17T03:02:00;96503.53;;;-0.32;91.24
85159;BME280;75525;50.718;10.600;2024-03-17T03:03:00;96514.81;;;-0.30;90.55
85159;BME280;75525;50.718;10.600;2024-03-17T03:04:01;96526.94;;;-0.28;90.98
85159;BME280;75525;50.718;10.600;2024-03-17T03:05:01;96534.25;;;-0.30;91.00
85159;BME280;75525;50.718;10.600;2024-03-17T03:06:02;96523.13;;;-0.33;91.06
85159;BME280;75525;50.718;10.600;2024-03-17T03:07:04;96518.19;;;-0.36;90.52
85159;BME280;75525;50.718;10.600;2024-03-17T03:08:05;96521.38;;;-0.41;90.80
85159;BME280;75525;50.718;10.600;2024-03-17T03:09:06;96516.75;;;-0.47;90.92
85159;BME280;75525;50.718;10.600;2024-03-17T03:10:12;96518.75;;;-0.49;90.84
85159;BME280;75525;50.718;10.600;2024-03-17T03:11:13;96518.75;;;-0.49;90.82
85159;BME280;75525;50.718;10.600;2024-03-17T03:12:13;96518.47;;;-0.54;91.09
85159;BME280;75525;50.718;10.600;2024-03-17T03:13:14;96519.81;;;-0.58;91.15
85159;BME280;75525;50.718;10.600;2024-03-17T03:14:14;96514.84;;;-0.61;91.39
85159;BME280;75525;50.718;10.600;2024-03-17T03:15:15;96512.38;;;-0.63;90.98
85159;BME280;75525;50.718;10.600;2024-03-17T03:16:15;96499.13;;;-0.71;91.66
85159;BME280;75525;50.718;10.600;2024-03-17T03:17:16;96514.56;;;-0.66;91.63
85159;BME280;75525;50.718;10.600;2024-03-17T03:18:16;96494.06;;;-0.81;91.67
85159;BME280;75525;50.718;10.600;2024-03-17T03:19:17;96513.44;;;-0.72;91.64
85159;BME280;75525;50.718;10.600;2024-03-17T03:20:19;96496.03;;;-0.83;91.68
85159;BME280;75525;50.718;10.600;2024-03-17T03:21:19;96516.63;;;-0.77;91.83
85159;BME280;75525;50.718;10.600;2024-03-17T03:22:21;96508.66;;;-0.77;91.67
85159;BME280;75525;50.718;10.600;2024-03-17T03:23:22;96512.47;;;-0.79;91.74
85159;BME280;75525;50.718;10.600;2024-03-17T03:24:22;96503.53;;;-0.86;91.26
85159;BME280;75525;50.718;10.600;2024-03-17T03:25:23;96494.97;;;-0.96;91.69
85159;BME280;75525;50.718;10.600;2024-03-17T03:26:23;96522.97;;;-0.86;91.91
85159;BME280;75525;50.718;10.600;2024-03-17T03:27:24;96512.72;;;-0.89;91.69
85159;BME280;75525;50.718;10.600;2024-03-17T03:28:25;96522.03;;;-0.93;91.63
85159;BME280;75525;50.718;10.600;2024-03-17T03:29:27;96510.28;;;-1.07;92.11
85159;BME280;75525;50.718;10.600;2024-03-17T03:30:27;96525.03;;;-0.96;91.75
85159;BME280;75525;50.718;10.600;2024-03-17T03:31:27;96518.56;;;-1.02;92.07
85159;BME280;75525;50.718;10.600;2024-03-17T03:32:28;96512.06;;;-0.99;92.33
85159;BME280;75525;50.718;10.600;2024-03-17T03:33:28;96513.25;;;-1.02;91.97
85159;BME280;75525;50.718;10.600;2024-03-17T03:34:29;96517.25;;;-1.06;92.05
85159;BME280;75525;50.718;10.600;2024-03-17T03:35:29;96515.94;;;-1.10;92.16
85159;BME280;75525;50.718;10.600;2024-03-17T03:36:30;96526.06;;;-1.05;92.08
85159;BME280;75525;50.718;10.600;2024-03-17T03:37:31;96525.75;;;-1.10;91.99
85159;BME280;75525;50.718;10.600;2024-03-17T03:38:32;96515.50;;;-1.21;92.24
85159;BME280;75525;50.718;10.600;2024-03-17T03:39:33;96526.44;;;-1.16;92.17
85159;BME280;75525;50.718;10.600;2024-03-17T03:40:34;96517.19;;;-1.29;92.46
85159;BME280;75525;50.718;10.600;2024-03-17T03:41:34;96520.63;;;-1.20;92.43
85159;BME280;75525;50.718;10.600;2024-03-17T03:42:35;96531.44;;;-1.21;92.29
85159;BME280;75525;50.718;10.600;2024-03-17T03:43:36;96527.13;;;-1.22;92.67
85159;BME280;75525;50.718;10.600;2024-03-17T03:44:36;96526.28;;;-1.23;92.62
85159;BME280;75525;50.718;10.600;2024-03-17T03:45:37;96525.81;;;-1.27;92.30
85159;BME280;75525;50.718;10.600;2024-03-17T03:46:37;96525.81;;;-1.27;92.45
85159;BME280;75525;50.718;10.600;2024-03-17T03:47:42;96529.81;;;-1.31;92.41
85159;BME280;75525;50.718;10.600;2024-03-17T03:48:43;96502.63;;;-1.41;92.41
85159;BME280;75525;50.718;10.600;2024-03-17T03:49:43;96533.13;;;-1.29;92.20
85159;BME280;75525;50.718;10.600;2024-03-17T03:50:45;96526.50;;;-1.33;92.39
85159;BME280;75525;50.718;10.600;2024-03-17T03:51:46;96532.63;;;-1.32;92.89
85159;BME280;75525;50.718;10.600;2024-03-17T03:52:46;96531.13;;;-1.35;92.45
85159;BME280;75525;50.718;10.600;2024-03-17T03:53:47;96521.38;;;-1.42;92.26
85159;BME280;75525;50.718;10.600;2024-03-17T03:54:51;96530.50;;;-1.37;92.52
85159;BME280;75525;50.718;10.600;2024-03-17T03:55:52;96515.25;;;-1.51;92.75
85159;BME280;75525;50.718;10.600;2024-03-17T03:56:52;96533.50;;;-1.40;92.51
85159;BME280;75525;50.718;10.600;2024-03-17T03:57:54;96530.84;;;-1.40;92.50
85159;BME280;75525;50.718;10.600;2024-03-17T03:58:54;96512.94;;;-1.54;92.48
85159;BME280;75525;50.718;10.600;2024-03-17T03:59:55;96528.84;;;-1.46;92.81
85159;BME280;75525;50.718;10.600;2024-03-17T04:00:56;96531.16;;;-1.43;93.10
85159;BME280;75525;50.718;10.600;2024-03-17T04:01:56;96529.34;;;-1.42;92.93
85159;BME280;75525;50.718;10.600;2024-03-17T04:02:58;96533.66;;;-1.41;92.77
85159;BME280;75525;50.718;10.600;2024-03-17T04:03:59;96527.50;;;-1.42;92.48
85159;BME280;75525;50.718;10.600;2024-03-17T04:04:59;96540.78;;;-1.42;92.55
85159;BME280;75525;50.718;10.600;2024-03-17T04:06:12;96543.63;;;-1.43;92.67
85159;BME280;75525;50.718;10.600;2024-03-17T04:07:14;96538.63;;;-1.46;92.40
85159;BME280;75525;50.718;10.600;2024-03-17T04:08:15;96535.00;;;-1.45;92.59
85159;BME280;75525;50.718;10.600;2024-03-17T04:09:15;96518.75;;;-1.59;92.16
85159;BME280;75525;50.718;10.600;2024-03-17T04:10:16;96535.34;;;-1.48;92.46
85159;BME280;75525;50.718;10.600;2024-03-17T04:11:18;96536.34;;;-1.50;92.70
85159;BME280;75525;50.718;10.600;2024-03-17T04:12:19;96539.16;;;-1.51;92.63
85159;BME280;75525;50.718;10.600;2024-03-17T04:13:19;96536.81;;;-1.54;92.38
85159;BME280;75525;50.718;10.600;2024-03-17T04:14:20;96536.19;;;-1.56;92.78
85159;BME280;75525;50.718;10.600;2024-03-17T04:15:20;96536.38;;;-1.58;93.15
85159;BME280;75525;50.718;10.600;2024-03-17T04:16:21;96525.91;;;-1.67;92.88
85159;BME280;75525;50.718;10.600;2024-03-17T04:17:22;96525.78;;;-1.66;93.09
85159;BME280;75525;50.718;10.600;2024-03-17T04:18:23;96537.22;;;-1.65;93.09
85159;BME280;75525;50.718;10.600;2024-03-17T04:19:27;96543.00;;;-1.62;93.07
85159;BME280;75525;50.718;10.600;2024-03-17T04:20:27;96526.91;;;-1.68;92.88
85159;BME280;75525;50.718;10.600;2024-03-17T04:21:28;96535.06;;;-1.70;92.83
85159;BME280;75525;50.718;10.600;2024-03-17T04:22:28;96542.84;;;-1.68;93.32
85159;BME280;75525;50.718;10.600;2024-03-17T04:23:29;96535.72;;;-1.76;93.15
85159;BME280;75525;50.718;10.600;2024-03-17T04:24:31;96539.69;;;-1.72;92.98
85159;BME280;75525;50.718;10.600;2024-03-17T04:25:31;96541.53;;;-1.72;93.28
85159;BME280;75525;50.718;10.600;2024-03-17T04:26:33;96544.34;;;-1.74;93.26
85159;BME280;75525;50.718;10.600;2024-03-17T04:27:33;96552.63;;;-1.69;93.28
85159;BME280;75525;50.718;10.600;2024-03-17T04:28:34;96546.84;;;-1.72;92.63
85159;BME280;75525;50.718;10.600;2024-03-17T04:29:35;96529.28;;;-1.82;93.00
85159;BME280;75525;50.718;10.600;2024-03-17T04:30:35;96543.88;;;-1.78;93.06
85159;BME280;75525;50.718;10.600;2024-03-17T04:31:37;96545.50;;;-1.77;93.37
85159;BME280;75525;50.718;10.600;2024-03-17T04:32:38;96534.22;;;-1.87;93.38
85159;BME280;75525;50.718;10.600;2024-03-17T04:33:38;96538.72;;;-1.87;93.27
85159;BME280;75525;50.718;10.600;2024-03-17T04:34:39;96544.19;;;-1.81;92.95
85159;BME280;75525;50.718;10.600;2024-03-17T04:35:40;96550.16;;;-1.79;92.77
85159;BME280;75525;50.718;10.600;2024-03-17T04:36:41;96552.16;;;-1.81;93.37
85159;BME280;75525;50.718;10.600;2024-03-17T04:37:41;96557.28;;;-1.79;93.54
85159;BME280;75525;50.718;10.600;2024-03-17T04:38:42;96552.78;;;-1.79;93.33
85159;BME280;75525;50.718;10.600;2024-03-17T04:39:44;96551.81;;;-1.78;93.11
85159;BME280;75525;50.718;10.600;2024-03-17T04:40:44;96526.97;;;-2.01;93.61
85159;BME280;75525;50.718;10.600;2024-03-17T04:41:47;96558.47;;;-1.82;93.59
85159;BME280;75525;50.718;10.600;2024-03-17T04:42:48;96563.09;;;-1.84;93.38
85159;BME280;75525;50.718;10.600;2024-03-17T04:43:49;96553.81;;;-1.88;93.44
85159;BME280;75525;50.718;10.600;2024-03-17T04:44:49;96544.84;;;-1.95;93.31
85159;BME280;75525;50.718;10.600;2024-03-17T04:45:59;96556.13;;;-1.85;93.60
85159;BME280;75525;50.718;10.600;2024-03-17T04:47:00;96555.97;;;-1.83;93.55
85159;BME280;75525;50.718;10.600;2024-03-17T04:48:01;96553.81;;;-1.88;93.32
85159;BME280;75525;50.718;10.600;2024-03-17T04:49:01;96547.19;;;-1.92;93.66
85159;BME280;75525;50.718;10.600;2024-03-17T04:50:04;96552.66;;;-1.85;93.84
85159;BME280;75525;50.718;10.600;2024-03-17T04:51:04;96539.72;;;-1.96;93.82
85159;BME280;75525;50.718;10.600;2024-03-17T04:52:06;96555.47;;;-1.87;93.58
85159;BME280;75525;50.718;10.600;2024-03-17T04:53:07;96554.81;;;-1.89;93.38
85159;BME280;75525;50.718;10.600;2024-03-17T04:54:07;96560.13;;;-1.89;93.21
85159;BME280;75525;50.718;10.600;2024-03-17T04:55:08;96557.47;;;-1.89;93.28
85159;BME280;75525;50.718;10.600;2024-03-17T04:56:08;96564.75;;;-1.91;93.22
85159;BME280;75525;50.718;10.600;2024-03-17T04:57:09;96566.75;;;-1.93;93.53
85159;BME280;75525;50.718;10.600;2024-03-17T04:58:10;96569.41;;;-1.93;93.56
85159;BME280;75525;50.718;10.600;2024-03-17T04:59:11;96566.06;;;-1.95;93.60
85159;BME280;75525;50.718;10.600;2024-03-17T05:00:12;96566.06;;;-1.95;93.58
85159;BME280;75525;50.718;10.600;2024-03-17T05:01:14;96565.44;;;-1.97;93.45
85159;BME280;75525;50.718;10.600;2024-03-17T05:02:14;96555.66;;;-2.05;93.24
85159;BME280;75525;50.718;10.600;2024-03-17T05:03:15;96568.09;;;-1.97;93.71
85159;BME280;75525;50.718;10.600;2024-03-17T05:04:16;96567.91;;;-1.95;92.99
85159;BME280;75525;50.718;10.600;2024-03-17T05:05:16;96571.38;;;-1.95;93.34
85159;BME280;75525;50.718;10.600;2024-03-17T05:06:17;96566.25;;;-1.96;93.06
85159;BME280;75525;50.718;10.600;2024-03-17T05:07:17;96565.44;;;-1.97;92.94
85159;BME280;75525;50.718;10.600;2024-03-17T05:08:18;96566.25;;;-1.96;93.62
85159;BME280;75525;50.718;10.600;2024-03-17T05:09:19;96563.28;;;-2.02;93.47
85159;BME280;75525;50.718;10.600;2024-03-17T05:10:19;96567.41;;;-1.99;93.39
85159;BME280;75525;50.718;10.600;2024-03-17T05:11:20;96571.88;;;-2.00;93.19
85159;BME280;75525;50.718;10.600;2024-03-17T05:12:20;96568.72;;;-2.03;92.95
85159;BME280;75525;50.718;10.600;2024-03-17T05:13:21;96567.75;;;-2.02;93.33
85159;BME280;75525;50.718;10.600;2024-03-17T05:14:21;96569.72;;;-2.04;93.09
85159;BME280;75525;50.718;10.600;2024-03-17T05:15:21;96575.38;;;-2.07;92.78
85159;BME280;75525;50.718;10.600;2024-03-17T05:16:22;96575.38;;;-2.07;92.64
85159;BME280;75525;50.718;10.600;2024-03-17T05:17:24;96563.09;;;-2.16;93.11
85159;BME280;75525;50.718;10.600;2024-03-17T05:18:24;96573.72;;;-2.08;93.23
85159;BME280;75525;50.718;10.600;2024-03-17T05:19:26;96563.78;;;-2.14;93.50
85159;BME280;75525;50.718;10.600;2024-03-17T05:20:26;96553.63;;;-2.19;93.50
85159;BME280;75525;50.718;10.600;2024-03-17T05:21:27;96581.03;;;-2.10;93.30
85159;BME280;75525;50.718;10.600;2024-03-17T05:22:30;96572.19;;;-2.19;94.12